GHCO2: Honey Creek nr South West City, MO

Data processed at Thu May 23 2019 23:50


All information presented herein is the property of the government of the United States of America and may be revised or deleted at any time without prior notice.
Dissemination of this information without the expressed written consent of the Public Affairs Office, Tulsa District U.S. Army Corps of Engineers is strictly prohibited.
These data are gathered electronically and, as presented, have not undergone any form of quality control. These data are not guaranteed to be valid or correct.
Go to home page.
Go to station list.
Go to home page.

Upstream stations:

Downstream station:
Previous Day
Next Day
Current Day
    
SHEF ID:       GHCO2     Honey Creek near South West City
STATION TYPE:  

                STAGE  RIV-FLOW  BAT-LOAD
                   ft       cfs      volt
              Ccp-Rev   Ccp-Rev   Ccp-Rev
(US/Central)
05/23 00:00      6.09       401     12.36
05/23 01:00      6.05       390     12.36
05/23 02:00      6.02       382     12.36
05/23 03:00      6.00       376     12.36
05/23 04:00      5.97       367     12.36
05/23 05:00      5.94       359     12.36
05/23 06:00      5.92       353     12.36
05/23 07:00      5.90       348     12.36
05/23 08:00      5.88       342     12.36
05/23 09:00      5.85       334     12.36
05/23 10:00      5.84       331     12.36
05/23 11:00      5.82       326     12.36
05/23 12:00      5.81       323     12.42
05/23 13:00      5.78       316     12.48
05/23 14:00      5.75       308     12.54
05/23 15:00      5.74       306     12.60
05/23 16:00      5.72       301     12.65
05/23 17:00      5.70       297     12.65
05/23 18:00      5.68       292     12.60
05/23 19:00      5.67       290     12.54
05/23 20:00      5.66       287     12.48
05/23 21:00      5.64       283     12.42
05/23 22:00      5.64       283     12.42
05/23 23:00      5.62       278     12.42